Time;durP1;ratioP1;P1;durP2;ratioP2;P2;SDS_P1;SDS_P2;PMS_P1;PMS_P2;Temp;Humidity;BMP_temperature;BMP_pressure;BME280_temperature;BME280_humidity;BME280_pressure;Samples;Min_cycle;Max_cycle;Signal;HPM_P1;HPM_P2
2021/12/07 00:00:50;;;;;;;2.00;1.50;;;;;;;18.40;38.41;100355.94;4998847;28;96843;-59
2021/12/07 00:03:16;;;;;;;2.45;1.60;;;;;;;18.39;38.23;100367.56;4997063;28;97013;-58
2021/12/07 00:05:42;;;;;;;2.53;1.80;;;;;;;18.36;38.36;100359.81;4998062;28;97073;-58
2021/12/07 00:08:07;;;;;;;2.63;1.70;;;;;;;18.36;38.20;100357.13;4997420;28;99470;-60
2021/12/07 00:10:32;;;;;;;2.88;1.65;;;;;;;18.33;38.29;100357.34;4999249;28;100817;-59
2021/12/07 00:12:58;;;;;;;2.67;1.63;;;;;;;18.27;38.54;100359.47;4999097;28;96798;-57
2021/12/07 00:15:25;;;;;;;2.42;1.70;;;;;;;18.26;38.43;100355.09;4996938;28;98756;-58
2021/12/07 00:17:52;;;;;;;2.47;1.58;;;;;;;18.25;38.32;100355.22;5001452;28;96807;-57
2021/12/07 00:20:20;;;;;;;2.72;1.70;;;;;;;18.23;37.98;100352.66;4996160;28;97726;-57
2021/12/07 00:22:50;;;;;;;3.05;1.50;;;;;;;18.20;38.63;100358.19;4997293;28;97216;-58
2021/12/07 00:25:16;;;;;;;2.13;1.33;;;;;;;18.19;38.39;100367.16;4997229;28;96833;-58
2021/12/07 00:27:42;;;;;;;1.92;1.30;;;;;;;18.15;38.54;100368.34;4999173;28;96724;-57
2021/12/07 00:30:11;;;;;;;2.15;1.50;;;;;;;18.13;38.46;100367.59;4997489;28;98644;-57
2021/12/07 00:32:42;;;;;;;2.67;1.70;;;;;;;18.12;38.23;100371.22;4996682;28;97563;-58
2021/12/07 00:37:40;;;;;;;2.42;1.50;;;;;;;18.08;38.09;100373.25;4997361;28;96961;-56
2021/12/07 00:40:10;;;;;;;1.65;1.23;;;;;;;18.07;38.35;100376.00;5000252;28;96838;-57
2021/12/07 00:42:36;;;;;;;2.65;1.55;;;;;;;18.05;38.20;100386.78;4992277;28;97577;-57
2021/12/07 00:45:04;;;;;;;2.38;1.50;;;;;;;18.03;38.48;100385.19;4996494;28;96974;-58
2021/12/07 00:47:29;;;;;;;2.92;1.60;;;;;;;18.00;38.72;100383.59;4994807;28;96704;-57
2021/12/07 00:49:56;;;;;;;2.25;1.50;;;;;;;18.01;38.45;100390.63;4989419;28;104728;-58
2021/12/07 00:52:22;;;;;;;1.80;1.48;;;;;;;18.02;38.44;100386.16;4995078;28;99526;-57
2021/12/07 00:54:48;;;;;;;1.98;1.40;;;;;;;18.00;38.24;100387.13;4995655;28;100562;-58
2021/12/07 00:57:15;;;;;;;1.73;1.38;;;;;;;18.00;38.98;100388.94;4996768;28;96925;-58
2021/12/07 00:59:40;;;;;;;1.52;1.20;;;;;;;17.96;39.00;100390.06;4976396;28;96942;-57
2021/12/07 01:02:07;;;;;;;1.50;1.30;;;;;;;17.93;38.79;100395.59;4999719;28;96903;-59
2021/12/07 01:04:33;;;;;;;2.40;1.40;;;;;;;17.91;39.05;100414.38;4995932;28;97699;-57
2021/12/07 01:07:06;;;;;;;1.83;1.30;;;;;;;17.89;39.02;100418.13;4996394;28;96950;-58
2021/12/07 01:24:39;;;;;;;1.17;1.08;;;;;;;17.85;38.98;100412.97;4979998;28;96757;-59
2021/12/07 01:26:08;;;;;;;1.70;1.08;;;;;;;17.76;39.30;100432.25;4988079;28;96920;-59
2021/12/07 01:28:41;;;;;;;1.60;1.20;;;;;;;17.74;39.31;100439.50;4979627;28;99589;-58
2021/12/07 01:31:23;;;;;;;1.53;1.20;;;;;;;17.69;39.30;100447.81;4984228;28;97113;-57
2021/12/07 01:36:43;;;;;;;1.75;1.17;;;;;;;17.66;39.23;100449.84;4996551;28;97031;-57
2021/12/07 01:45:39;;;;;;;1.40;1.25;;;;;;;17.67;39.05;100476.38;4996000;28;97021;-58
2021/12/07 02:00:40;;;;;;;1.90;1.27;;;;;;;17.51;39.56;100500.50;4983950;28;97036;-58
2021/12/07 02:03:05;;;;;;;1.92;1.40;;;;;;;17.51;39.45;100502.31;4983489;28;98746;-57
2021/12/07 02:05:32;;;;;;;1.38;1.27;;;;;;;17.49;39.60;100498.91;4995632;28;97629;-57
2021/12/07 02:07:57;;;;;;;1.20;1.05;;;;;;;17.44;39.93;100490.38;4992292;28;96975;-58
2021/12/07 02:10:26;;;;;;;1.70;1.20;;;;;;;17.43;40.13;100486.00;4993368;28;96874;-59
2021/12/07 02:13:03;;;;;;;2.28;1.50;;;;;;;17.44;39.94;100490.38;4978803;28;98879;-57
2021/12/07 02:15:31;;;;;;;1.10;0.93;;;;;;;17.43;39.93;100493.97;4994539;28;97708;-58
2021/12/07 02:17:58;;;;;;;1.60;1.30;;;;;;;17.43;39.84;100499.31;4976987;28;97071;-59
2021/12/07 02:20:30;;;;;;;2.80;1.40;;;;;;;17.41;39.96;100514.53;4986601;28;97062;-63
2021/12/07 02:22:56;;;;;;;2.20;1.30;;;;;;;17.36;40.02;100526.31;4995721;28;96952;-60
2021/12/07 02:25:22;;;;;;;1.85;1.27;;;;;;;17.34;39.97;100530.94;4994837;28;100375;-62
2021/12/07 02:27:49;;;;;;;2.05;1.40;;;;;;;17.32;40.01;100540.81;4994905;28;97724;-59
2021/12/07 02:30:21;;;;;;;2.20;1.50;;;;;;;17.33;39.93;100523.00;4995652;28;97211;-57
2021/12/07 02:32:47;;;;;;;1.77;1.30;;;;;;;17.32;39.98;100523.97;4999064;28;97083;-58
2021/12/07 02:35:23;;;;;;;1.45;1.20;;;;;;;17.27;40.09;100524.25;4987577;28;99960;-58
2021/12/07 02:37:55;;;;;;;1.40;1.20;;;;;;;17.29;40.12;100529.50;4987347;28;99656;-58
2021/12/07 02:40:21;;;;;;;2.55;1.60;;;;;;;17.27;40.33;100532.25;4987559;28;97057;-58
2021/12/07 02:42:47;;;;;;;1.30;1.13;;;;;;;17.26;40.32;100535.84;4981209;28;97223;-60
2021/12/07 02:45:14;;;;;;;1.70;1.00;;;;;;;17.24;40.26;100543.13;4994926;28;97128;-58
2021/12/07 02:47:40;;;;;;;2.15;1.20;;;;;;;17.22;40.35;100548.53;4985687;28;98122;-58
2021/12/07 02:50:10;;;;;;;1.67;1.25;;;;;;;17.21;40.45;100541.47;5011382;28;97515;-58
2021/12/07 02:52:36;;;;;;;2.30;1.20;;;;;;;17.21;40.46;100540.63;4984363;28;97075;-57
2021/12/07 02:55:06;;;;;;;1.42;0.80;;;;;;;17.16;40.53;100538.25;4996789;28;97022;-57
2021/12/07 02:57:33;;;;;;;2.17;1.20;;;;;;;17.14;40.51;100547.31;4993261;28;99621;-58
2021/12/07 03:00:11;;;;;;;1.25;1.08;;;;;;;17.14;40.54;100553.47;4977474;28;98589;-58
2021/12/07 03:02:45;;;;;;;2.15;1.20;;;;;;;17.14;40.66;100560.63;4994796;28;96913;-58
2021/12/07 03:05:42;;;;;;;1.30;1.20;;;;;;;17.12;40.66;100560.69;4977969;28;96928;-58
2021/12/07 03:08:46;;;;;;;2.03;1.27;;;;;;;17.12;40.60;100557.19;4992894;28;97041;-58
2021/12/07 03:27:38;;;;;;;1.85;1.00;;;;;;;16.98;40.96;100580.19;4995264;28;97032;-57
2021/12/07 03:30:06;;;;;;;1.23;1.10;;;;;;;16.98;40.82;100590.00;4996146;28;96614;-57
2021/12/07 03:32:33;;;;;;;1.83;1.08;;;;;;;16.95;40.85;100588.38;4979311;28;97059;-58
2021/12/07 03:34:59;;;;;;;2.50;1.15;;;;;;;16.95;40.83;100592.84;4983808;28;99459;-56
2021/12/07 03:37:24;;;;;;;2.20;1.20;;;;;;;16.93;40.96;100598.25;4996653;28;98607;-57
2021/12/07 03:39:50;;;;;;;2.17;1.10;;;;;;;16.92;41.00;100605.38;4985528;28;96863;-58
2021/12/07 03:42:16;;;;;;;1.85;1.30;;;;;;;16.90;41.16;100601.94;5000227;28;96909;-58
2021/12/07 03:44:42;;;;;;;1.50;1.10;;;;;;;16.88;41.01;100603.84;4983683;28;114118;-60
2021/12/07 03:47:08;;;;;;;1.40;1.10;;;;;;;16.88;41.09;100605.63;4996057;28;99851;-58
2021/12/07 03:49:34;;;;;;;1.33;1.10;;;;;;;16.84;41.02;100599.66;4998008;28;113359;-60
2021/12/07 03:51:59;;;;;;;2.13;1.20;;;;;;;16.84;41.00;100606.78;4996962;28;97024;-59
2021/12/07 03:54:25;;;;;;;2.28;1.20;;;;;;;16.82;41.35;100604.22;4988828;28;96935;-59
2021/12/07 03:56:51;;;;;;;4.55;1.35;;;;;;;16.83;41.21;100611.25;4997110;28;98934;-58
2021/12/07 03:59:17;;;;;;;1.23;1.10;;;;;;;16.82;41.16;100617.50;4997342;28;99511;-58
2021/12/07 04:01:42;;;;;;;1.83;1.15;;;;;;;16.80;41.24;100626.56;5000566;28;96966;-58
2021/12/07 04:04:08;;;;;;;2.22;1.20;;;;;;;16.79;41.13;100635.47;4999966;28;96890;-57
2021/12/07 04:06:34;;;;;;;2.13;1.40;;;;;;;16.80;41.17;100639.88;4996702;28;124960;-57
2021/12/07 04:09:00;;;;;;;1.67;1.20;;;;;;;16.76;41.25;100641.84;4987985;28;100009;-59
2021/12/07 04:11:26;;;;;;;2.50;1.20;;;;;;;16.75;41.19;100646.31;4980015;28;96965;-59
2021/12/07 04:13:52;;;;;;;2.45;1.10;;;;;;;16.74;41.32;100646.41;4988707;28;97087;-59
2021/12/07 04:16:20;;;;;;;2.28;1.15;;;;;;;16.73;41.35;100661.53;4984447;28;96882;-59
2021/12/07 04:18:49;;;;;;;2.65;1.08;;;;;;;16.72;41.34;100657.16;4988878;28;97132;-57
2021/12/07 04:21:15;;;;;;;1.58;1.10;;;;;;;16.70;41.46;100645.72;4985526;28;99954;-58
2021/12/07 04:23:41;;;;;;;2.28;1.20;;;;;;;16.69;41.32;100653.78;4989826;28;97668;-58
2021/12/07 04:26:10;;;;;;;2.03;1.13;;;;;;;16.66;41.31;100657.50;4998646;28;96817;-58
2021/12/07 04:28:37;;;;;;;1.92;0.98;;;;;;;16.66;41.38;100651.34;4996815;28;97776;-58
2021/12/07 04:31:05;;;;;;;2.65;1.30;;;;;;;16.65;41.52;100658.44;4996767;28;97698;-57
2021/12/07 04:33:30;;;;;;;2.35;1.20;;;;;;;16.62;41.66;100661.31;4996746;28;97174;-57
2021/12/07 04:35:57;;;;;;;1.52;1.00;;;;;;;16.61;41.62;100663.09;4997094;28;96607;-58
2021/12/07 04:38:23;;;;;;;1.83;1.10;;;;;;;16.62;41.40;100666.63;4998008;28;96931;-61
2021/12/07 04:40:49;;;;;;;2.55;1.10;;;;;;;16.61;41.56;100667.56;4999830;28;96982;-60
2021/12/07 04:43:15;;;;;;;2.08;1.25;;;;;;;16.60;41.25;100666.69;4997361;28;97409;-58
2021/12/07 04:59:18;;;;;;;3.13;1.20;;;;;;;16.53;41.55;100696.44;4995925;28;96927;-58
2021/12/07 05:01:45;;;;;;;1.83;1.02;;;;;;;16.52;41.60;100700.88;4996847;28;97718;-57
2021/12/07 05:04:16;;;;;;;1.85;0.98;;;;;;;16.47;41.64;100697.63;4999206;28;98190;-61
2021/12/07 05:06:48;;;;;;;2.85;1.33;;;;;;;16.45;41.57;100689.72;4996548;28;97739;-57
2021/12/07 05:14:45;;;;;;;2.95;1.20;;;;;;;16.52;41.45;100697.38;4937165;28;96967;-57
2021/12/07 05:38:57;;;;;;;2.17;0.90;;;;;;;17.17;41.13;100742.41;4990284;28;98745;-58
2021/12/07 05:41:24;;;;;;;1.65;0.90;;;;;;;17.23;41.19;100774.00;4992571;28;97805;-59
2021/12/07 05:43:50;;;;;;;2.55;0.90;;;;;;;17.28;41.17;100762.22;4995414;28;97112;-59
2021/12/07 05:46:15;;;;;;;1.63;0.70;;;;;;;17.30;40.99;100757.63;4987779;28;96870;-57
2021/12/07 05:48:42;;;;;;;3.00;1.00;;;;;;;17.32;41.00;100753.06;4994917;28;96970;-58
2021/12/07 05:51:07;;;;;;;1.63;0.80;;;;;;;17.33;40.99;100758.34;4989594;28;97717;-57
2021/12/07 05:53:34;;;;;;;2.78;0.90;;;;;;;17.36;40.82;100767.94;4995562;28;97574;-56
2021/12/07 05:56:02;;;;;;;2.85;0.93;;;;;;;17.37;40.89;100761.66;4983809;28;97125;-58
2021/12/07 05:58:27;;;;;;;1.90;0.90;;;;;;;17.39;40.86;100757.09;4994353;28;97052;-57
2021/12/07 06:00:57;;;;;;;2.95;1.02;;;;;;;17.40;40.76;100758.78;4996783;28;113953;-58
2021/12/07 06:03:25;;;;;;;3.80;1.05;;;;;;;17.42;40.64;100788.03;4980788;28;98045;-59
2021/12/07 06:05:52;;;;;;;4.57;1.00;;;;;;;17.45;40.85;100782.53;4995285;28;96946;-58
2021/12/07 06:08:18;;;;;;;3.88;0.95;;;;;;;17.47;40.73;100786.81;4982918;28;96741;-59
2021/12/07 06:10:44;;;;;;;4.60;1.08;;;;;;;17.49;41.25;100800.91;4995895;28;96830;-59
2021/12/07 06:13:09;;;;;;;3.88;1.20;;;;;;;17.51;40.58;100790.13;4997463;28;96976;-59
2021/12/07 06:15:38;;;;;;;3.85;1.00;;;;;;;17.53;41.00;100799.75;4996657;28;110173;-56
2021/12/07 06:18:05;;;;;;;4.55;1.20;;;;;;;17.54;40.75;100809.47;4995652;28;96921;-60
2021/12/07 06:20:31;;;;;;;4.63;1.10;;;;;;;17.58;41.05;100803.97;4995781;28;97271;-57
2021/12/07 06:22:57;;;;;;;6.15;1.50;;;;;;;17.64;41.75;100806.25;4996333;28;98777;-57
2021/12/07 06:25:23;;;;;;;19.63;1.95;;;;;;;17.73;42.24;100820.81;4994628;28;98635;-58
2021/12/07 06:27:49;;;;;;;8.40;1.75;;;;;;;17.77;42.04;100811.66;4994012;28;97064;-58
2021/12/07 06:30:15;;;;;;;8.25;1.55;;;;;;;17.81;42.09;100806.06;4993306;28;97003;-57
2021/12/07 06:32:41;;;;;;;7.20;1.70;;;;;;;17.85;42.30;100812.94;4994247;28;96889;-58
2021/12/07 06:35:08;;;;;;;4.95;1.35;;;;;;;17.85;41.91;100802.25;4995259;28;98972;-59
2021/12/07 06:37:34;;;;;;;6.82;1.52;;;;;;;17.88;42.14;100805.69;4998417;28;97692;-57
2021/12/07 06:40:00;;;;;;;8.13;1.50;;;;;;;17.89;42.69;100802.09;4993969;28;97083;-57
2021/12/07 06:42:26;;;;;;;10.80;1.80;;;;;;;17.93;42.44;100798.25;4993916;28;96828;-56
2021/12/07 06:44:51;;;;;;;9.48;1.55;;;;;;;17.93;42.04;100800.91;4993590;28;97604;-61
2021/12/07 06:47:17;;;;;;;8.68;1.80;;;;;;;17.94;42.16;100799.97;4996097;28;97486;-62
2021/12/07 06:49:42;;;;;;;7.53;1.50;;;;;;;17.96;42.11;100795.41;4993342;28;108412;-58
2021/12/07 06:52:08;;;;;;;8.52;1.60;;;;;;;17.96;41.97;100798.94;4996084;28;113157;-58
2021/12/07 06:54:35;;;;;;;11.85;1.70;;;;;;;17.96;42.19;100800.75;4995076;28;118826;-59
2021/12/07 06:57:02;;;;;;;16.85;2.00;;;;;;;17.99;41.92;100797.94;4990871;28;97547;-58
2021/12/07 06:59:28;;;;;;;6.28;1.67;;;;;;;17.99;42.12;100801.44;4990116;28;98808;-58
2021/12/07 07:01:54;;;;;;;10.63;1.45;;;;;;;18.01;42.21;100817.34;4993089;28;105529;-59
2021/12/07 07:04:19;;;;;;;13.88;2.20;;;;;;;18.09;42.64;100811.53;4979475;28;96938;-58
2021/12/07 07:06:45;;;;;;;12.38;1.55;;;;;;;18.09;42.53;100816.88;4994853;28;97729;-57
2021/12/07 07:09:12;;;;;;;10.88;1.80;;;;;;;18.06;42.34;100820.59;4994755;28;97578;-58
2021/12/07 07:11:39;;;;;;;9.70;1.83;;;;;;;18.05;42.47;100821.53;4993795;28;96970;-58
2021/12/07 07:14:05;;;;;;;9.25;1.73;;;;;;;18.04;42.50;100834.97;4993084;28;98288;-59
2021/12/07 07:16:31;;;;;;;12.38;2.05;;;;;;;18.01;42.54;100828.00;4990325;28;97042;-57
2021/12/07 07:18:58;;;;;;;8.55;1.83;;;;;;;17.98;42.29;100833.53;4994885;28;97666;-57
2021/12/07 07:21:24;;;;;;;12.82;1.42;;;;;;;17.98;42.33;100841.53;4997934;28;97602;-58
2021/12/07 07:23:53;;;;;;;7.50;1.38;;;;;;;17.98;42.55;100844.22;4994788;28;96927;-57
2021/12/07 07:26:19;;;;;;;7.80;1.70;;;;;;;17.98;42.38;100836.22;4995392;28;96831;-58
2021/12/07 07:28:45;;;;;;;4.95;1.40;;;;;;;17.99;42.31;100835.25;4994926;28;98725;-58
2021/12/07 07:31:12;;;;;;;7.72;1.63;;;;;;;18.00;42.25;100840.50;4994433;28;97388;-57
2021/12/07 07:33:38;;;;;;;6.82;1.80;;;;;;;18.03;42.06;100833.25;4977021;28;96910;-58
2021/12/07 07:36:05;;;;;;;12.10;1.83;;;;;;;18.04;42.15;100835.81;4975577;28;96902;-60
2021/12/07 07:38:31;;;;;;;5.40;1.42;;;;;;;18.06;42.13;100835.75;4982971;28;96869;-58
2021/12/07 07:40:58;;;;;;;8.75;1.80;;;;;;;18.07;42.09;100840.09;4994899;28;97571;-58
2021/12/07 07:43:24;;;;;;;3.33;1.30;;;;;;;18.07;42.18;100843.66;4978993;28;97933;-58
2021/12/07 07:45:58;;;;;;;7.95;1.60;;;;;;;18.08;42.05;100847.16;4978023;28;96967;-58
2021/12/07 07:48:23;;;;;;;6.03;1.70;;;;;;;18.08;42.26;100844.47;4995352;28;96999;-60
2021/12/07 07:50:52;;;;;;;8.32;1.50;;;;;;;18.08;42.24;100850.69;4990263;28;97725;-59
2021/12/07 07:53:18;;;;;;;6.78;1.58;;;;;;;18.07;42.34;100858.78;4976163;28;97333;-56
2021/12/07 07:55:44;;;;;;;5.32;1.50;;;;;;;18.10;42.50;100856.81;4991185;28;96844;-57
2021/12/07 07:58:11;;;;;;;6.18;1.33;;;;;;;18.12;42.38;100856.69;4991308;28;96990;-58
2021/12/07 08:00:40;;;;;;;7.05;1.17;;;;;;;18.12;42.38;100854.88;4995168;28;96814;-56
2021/12/07 08:03:06;;;;;;;5.07;1.40;;;;;;;18.15;42.45;100854.69;4976464;28;97943;-58
2021/12/07 08:05:32;;;;;;;7.55;1.50;;;;;;;18.18;42.35;100856.31;4996647;28;96980;-57
2021/12/07 08:07:58;;;;;;;6.15;1.42;;;;;;;18.20;42.26;100853.56;4993193;28;96779;-57
2021/12/07 08:10:29;;;;;;;5.18;1.40;;;;;;;18.23;42.32;100856.88;4993935;28;97121;-58
2021/12/07 08:12:57;;;;;;;6.78;1.40;;;;;;;18.25;42.42;100855.00;4994641;28;99917;-59
2021/12/07 08:15:26;;;;;;;7.75;1.90;;;;;;;18.26;42.42;100838.00;4993909;28;97410;-58
2021/12/07 08:17:52;;;;;;;4.53;1.38;;;;;;;18.28;42.34;100844.09;4993543;28;97152;-58
2021/12/07 08:20:18;;;;;;;5.82;1.13;;;;;;;18.30;42.32;100841.34;4993917;28;97054;-56
2021/12/07 08:22:44;;;;;;;7.85;1.58;;;;;;;18.29;42.38;100840.47;4997009;28;97326;-56
2021/12/07 08:25:10;;;;;;;3.58;1.25;;;;;;;18.30;42.38;100836.03;4999772;28;113663;-61
2021/12/07 08:27:35;;;;;;;7.03;1.20;;;;;;;18.30;42.22;100842.19;4997354;28;96918;-60
2021/12/07 08:30:05;;;;;;;3.10;1.15;;;;;;;18.31;42.16;100838.59;4996961;28;97267;-59
2021/12/07 08:32:31;;;;;;;6.28;1.38;;;;;;;18.34;42.19;100842.88;4990270;28;113102;-58
2021/12/07 08:34:57;;;;;;;3.63;1.23;;;;;;;18.33;42.26;100848.31;4997288;28;97762;-58
2021/12/07 08:37:22;;;;;;;4.25;1.33;;;;;;;18.33;42.27;100848.31;4997101;28;97469;-59
2021/12/07 08:39:48;;;;;;;10.50;1.33;;;;;;;18.32;42.60;100855.44;4990959;28;111681;-58
2021/12/07 08:42:15;;;;;;;5.78;1.35;;;;;;;18.35;42.51;100857.91;4996005;28;110043;-60
2021/12/07 08:44:41;;;;;;;7.55;1.65;;;;;;;18.39;42.42;100850.56;4997772;28;97038;-69
2021/12/07 08:47:07;;;;;;;8.90;1.60;;;;;;;18.48;42.32;100850.00;5001961;28;113900;-63
2021/12/07 08:49:34;;;;;;;8.00;1.40;;;;;;;18.65;42.36;100851.59;4997043;28;97013;-55
2021/12/07 08:52:00;;;;;;;7.47;1.25;;;;;;;18.88;41.83;100849.25;4995534;28;96996;-55
2021/12/07 08:59:35;;;;;;;8.90;1.45;;;;;;;18.93;41.73;100864.03;4996951;28;96968;-55
2021/12/07 08:59:57;;;;;;;12.15;1.30;;;;;;;19.11;41.69;100847.75;4996224;28;97651;-55
2021/12/07 09:02:25;;;;;;;9.05;1.30;;;;;;;19.11;41.50;100857.59;4996145;28;96853;-54
2021/12/07 09:04:56;;;;;;;12.73;1.80;;;;;;;19.08;41.46;100859.50;4996992;28;96960;-54
2021/12/07 09:07:23;;;;;;;8.32;1.40;;;;;;;19.07;41.38;100875.66;4988353;28;96941;-55
2021/12/07 09:09:50;;;;;;;3.92;1.20;;;;;;;19.03;41.49;100872.31;5000174;28;97621;-54
2021/12/07 09:12:18;;;;;;;6.13;1.02;;;;;;;18.94;41.56;100867.56;4996971;28;97081;-54
2021/12/07 09:14:45;;;;;;;5.90;1.23;;;;;;;18.84;41.72;100866.41;4995217;28;97052;-55
2021/12/07 09:17:12;;;;;;;6.32;1.10;;;;;;;18.75;41.77;100863.38;4997363;28;96910;-54
2021/12/07 09:19:38;;;;;;;5.78;1.40;;;;;;;18.72;41.73;100857.41;4997921;28;107794;-54
2021/12/07 09:22:05;;;;;;;7.30;1.42;;;;;;;18.67;41.92;100854.19;4996387;28;97482;-54
2021/12/07 09:24:31;;;;;;;8.45;1.30;;;;;;;18.67;41.92;100867.53;4998395;28;96900;-55
2021/12/07 09:26:58;;;;;;;6.53;1.55;;;;;;;18.67;41.97;100860.38;4996705;28;97054;-54
2021/12/07 09:29:23;;;;;;;6.82;1.30;;;;;;;18.68;41.86;100856.75;4996742;28;96854;-54
2021/12/07 09:31:49;;;;;;;8.07;1.65;;;;;;;18.74;41.57;100861.66;5000819;28;97156;-54
2021/12/07 09:34:16;;;;;;;4.40;1.20;;;;;;;18.84;41.80;100866.41;4995943;28;96873;-54
2021/12/07 09:36:42;;;;;;;6.20;1.30;;;;;;;18.90;41.75;100861.53;4993828;28;96659;-54
2021/12/07 09:39:14;;;;;;;6.28;1.48;;;;;;;18.95;41.50;100855.09;4997312;28;96769;-54
2021/12/07 09:41:40;;;;;;;8.30;1.55;;;;;;;19.02;41.58;100865.28;4997088;28;97625;-54
2021/12/07 09:44:07;;;;;;;6.28;1.58;;;;;;;19.17;41.30;100865.19;4992944;28;97507;-54
2021/12/07 09:46:33;;;;;;;5.18;1.70;;;;;;;19.33;40.85;100857.88;4997954;28;96922;-55
2021/12/07 09:48:59;;;;;;;6.57;1.67;;;;;;;19.47;40.52;100864.97;4996218;28;96812;-55
2021/12/07 09:51:27;;;;;;;3.80;1.50;;;;;;;19.55;40.40;100862.63;4996814;28;96960;-54
2021/12/07 09:53:55;;;;;;;3.92;1.20;;;;;;;19.60;40.28;100866.78;4998981;28;97742;-55
2021/12/07 09:56:23;;;;;;;4.80;1.50;;;;;;;19.59;40.55;100857.06;4997882;28;96820;-55
2021/12/07 09:58:52;;;;;;;5.38;1.73;;;;;;;19.60;40.51;100870.34;4996772;28;96886;-55
2021/12/07 10:01:18;;;;;;;5.80;1.60;;;;;;;19.61;40.60;100868.50;4996209;28;96992;-54
2021/12/07 10:03:44;;;;;;;12.18;1.75;;;;;;;19.62;40.57;100870.22;4997450;28;97170;-55
2021/12/07 10:06:10;;;;;;;3.28;1.42;;;;;;;19.64;40.64;100869.16;4994813;28;118512;-54
2021/12/07 10:08:37;;;;;;;3.72;1.30;;;;;;;19.64;40.32;100863.81;4995689;28;96903;-55
2021/12/07 10:11:05;;;;;;;7.38;1.60;;;;;;;19.62;40.37;100857.72;4994672;28;96923;-56
2021/12/07 10:13:33;;;;;;;4.40;1.80;;;;;;;19.60;40.45;100859.66;5000847;28;96697;-55
2021/12/07 10:16:05;;;;;;;5.60;1.50;;;;;;;19.59;40.32;100843.69;4991506;28;98632;-55
2021/12/07 10:18:36;;;;;;;5.30;1.55;;;;;;;19.63;40.12;100848.75;4995764;28;97004;-55
2021/12/07 10:21:13;;;;;;;3.97;1.80;;;;;;;19.69;39.66;100844.78;4994540;28;96878;-55
2021/12/07 10:23:42;;;;;;;4.40;1.70;;;;;;;19.76;39.47;100847.88;4996746;28;96837;-55
2021/12/07 10:26:10;;;;;;;4.35;1.73;;;;;;;19.84;39.37;100856.25;4994859;28;98233;-55
2021/12/07 10:28:41;;;;;;;4.60;1.60;;;;;;;19.88;39.13;100846.22;4984663;28;97489;-55
2021/12/07 10:31:44;;;;;;;4.10;1.63;;;;;;;19.92;39.08;100837.88;4977957;28;96795;-55
2021/12/07 10:34:30;;;;;;;3.60;1.42;;;;;;;19.95;39.24;100834.13;4995892;28;96882;-55
2021/12/07 10:37:12;;;;;;;3.45;1.40;;;;;;;19.96;39.22;100831.34;4999268;28;96935;-54
2021/12/07 10:39:51;;;;;;;7.80;2.30;;;;;;;20.01;39.22;100834.56;4982232;28;97703;-55
2021/12/07 10:42:25;;;;;;;5.45;2.30;;;;;;;20.13;38.78;100835.50;4994712;28;96914;-55
2021/12/07 10:44:51;;;;;;;6.15;2.58;;;;;;;20.27;38.74;100831.00;4993543;28;97005;-55
2021/12/07 10:47:20;;;;;;;7.75;2.65;;;;;;;20.35;38.41;100827.78;4997240;28;97087;-54
2021/12/07 10:49:58;;;;;;;7.55;2.60;;;;;;;20.39;38.43;100819.41;4995950;28;97693;-55
2021/12/07 10:52:38;;;;;;;6.47;2.30;;;;;;;20.44;38.58;100819.09;4977777;28;97665;-55
2021/12/07 10:55:26;;;;;;;4.93;2.80;;;;;;;20.50;38.64;100812.44;4990946;28;97001;-55
2021/12/07 10:57:56;;;;;;;7.57;2.42;;;;;;;20.52;38.75;100808.66;4996919;28;96727;-55
2021/12/07 11:00:25;;;;;;;4.93;2.03;;;;;;;20.54;38.63;100811.22;4998510;28;96885;-55
2021/12/07 11:02:58;;;;;;;5.18;2.22;;;;;;;20.55;38.61;100799.53;4994716;28;97778;-55
2021/12/07 11:05:41;;;;;;;5.50;2.30;;;;;;;20.57;38.67;100794.94;4996748;28;96671;-55
2021/12/07 11:08:09;;;;;;;4.68;2.28;;;;;;;20.58;38.58;100786.78;4994956;28;96838;-55
2021/12/07 11:10:42;;;;;;;3.47;2.00;;;;;;;20.59;38.64;100782.28;4994632;28;96812;-56
2021/12/07 11:13:18;;;;;;;3.83;2.05;;;;;;;20.65;38.36;100779.16;4994195;28;98742;-56
2021/12/07 11:16:01;;;;;;;4.85;2.28;;;;;;;20.78;38.06;100765.72;4995532;28;97836;-55
2021/12/07 11:18:39;;;;;;;3.65;2.55;;;;;;;20.95;37.66;100761.78;4992790;28;97183;-54
2021/12/07 11:21:07;;;;;;;4.13;2.78;;;;;;;21.10;37.48;100752.59;4994920;28;97043;-55
2021/12/07 11:23:40;;;;;;;8.07;3.30;;;;;;;21.19;37.20;100748.34;4998099;28;115777;-55
2021/12/07 11:31:35;;;;;;;5.97;3.60;;;;;;;21.40;36.95;100742.28;4995158;28;96791;-54
2021/12/07 11:34:06;;;;;;;5.78;3.30;;;;;;;21.42;36.76;100743.88;4994576;28;96978;-54
2021/12/07 11:36:38;;;;;;;7.30;3.25;;;;;;;21.44;36.71;100743.78;4994186;28;98127;-54
2021/12/07 11:39:22;;;;;;;6.20;3.30;;;;;;;21.45;36.83;100748.16;4994700;28;97575;-54
2021/12/07 11:41:58;;;;;;;8.18;3.50;;;;;;;21.48;36.70;100744.38;4995314;28;96922;-54
2021/12/07 11:44:24;;;;;;;5.07;3.10;;;;;;;21.48;36.94;100747.91;4994207;28;96849;-54
2021/12/07 11:46:52;;;;;;;4.90;2.95;;;;;;;21.49;36.68;100738.88;4998729;28;96826;-55
2021/12/07 11:49:31;;;;;;;5.82;3.00;;;;;;;21.49;36.77;100743.41;4994828;28;97659;-55
2021/12/07 11:52:01;;;;;;;4.97;3.03;;;;;;;21.49;36.42;100746.94;4994342;28;96936;-55
2021/12/07 11:54:33;;;;;;;4.88;2.72;;;;;;;21.52;36.71;100743.16;4994175;28;97021;-55
2021/12/07 11:57:02;;;;;;;5.72;3.20;;;;;;;21.52;36.68;100737.78;4999903;28;96689;-55
2021/12/07 11:59:28;;;;;;;8.32;3.40;;;;;;;21.55;36.86;100732.19;4997615;28;97671;-56
2021/12/07 12:01:55;;;;;;;4.65;2.42;;;;;;;21.64;36.67;100722.63;4996630;28;97639;-55
2021/12/07 12:04:21;;;;;;;5.70;2.90;;;;;;;21.69;36.46;100718.59;4997853;28;96792;-56
2021/12/07 12:06:53;;;;;;;6.70;2.90;;;;;;;21.76;36.02;100716.28;4997112;28;96746;-55
2021/12/07 12:09:23;;;;;;;3.97;2.70;;;;;;;21.85;36.14;100718.22;5002985;28;96753;-56
2021/12/07 12:12:31;;;;;;;5.22;3.00;;;;;;;21.89;36.22;100710.78;4997180;28;97759;-56
2021/12/07 12:15:05;;;;;;;5.25;2.55;;;;;;;21.92;36.02;100712.34;4997983;28;96964;-55
2021/12/07 12:18:17;;;;;;;5.50;2.90;;;;;;;21.92;36.09;100704.31;4996845;28;96833;-55
2021/12/07 12:20:57;;;;;;;4.68;2.40;;;;;;;21.93;35.99;100692.59;4998187;28;96820;-55
2021/12/07 12:23:58;;;;;;;4.55;2.58;;;;;;;21.90;36.00;100692.84;4993057;28;97843;-55
2021/12/07 12:26:27;;;;;;;4.18;2.53;;;;;;;21.90;35.95;100699.06;4997101;28;97742;-55
2021/12/07 12:28:54;;;;;;;4.70;2.60;;;;;;;22.00;35.58;100696.47;4997524;28;96909;-56
2021/12/07 12:31:45;;;;;;;3.83;2.50;;;;;;;22.23;35.28;100683.84;5001686;28;96924;-55
2021/12/07 12:34:24;;;;;;;4.18;2.47;;;;;;;22.42;35.19;100685.06;4997784;28;97686;-56
2021/12/07 12:36:59;;;;;;;5.68;2.53;;;;;;;22.48;34.86;100684.56;4996269;28;97822;-62
2021/12/07 12:40:00;;;;;;;5.35;2.13;;;;;;;22.47;34.71;100674.78;4998504;28;97104;-57
2021/12/07 12:42:39;;;;;;;5.25;2.63;;;;;;;22.43;34.76;100665.31;4996799;28;96897;-60
2021/12/07 12:45:23;;;;;;;3.97;2.35;;;;;;;22.48;35.24;100672.00;4996057;28;96903;-61
2021/12/07 12:48:20;;;;;;;3.47;2.22;;;;;;;22.46;35.24;100668.56;4997454;28;100205;-56
2021/12/07 12:50:49;;;;;;;5.20;2.47;;;;;;;22.42;35.49;100664.44;4999103;28;97608;-58
2021/12/07 12:53:31;;;;;;;3.88;2.17;;;;;;;22.42;35.39;100663.59;4996457;28;96945;-59
2021/12/07 12:56:19;;;;;;;3.15;2.00;;;;;;;22.40;35.17;100661.00;5001629;28;96848;-60
2021/12/07 12:58:52;;;;;;;4.47;2.00;;;;;;;22.37;35.40;100645.16;4992255;28;97774;-56
2021/12/07 13:01:31;;;;;;;3.33;1.70;;;;;;;22.33;35.31;100647.22;4996158;28;98095;-55
2021/12/07 13:03:57;;;;;;;4.07;1.90;;;;;;;22.29;35.26;100637.72;4996807;28;97207;-64
2021/12/07 13:06:32;;;;;;;6.65;2.10;;;;;;;22.26;35.08;100629.06;4978580;28;96889;-63
2021/12/07 13:09:03;;;;;;;5.88;1.90;;;;;;;22.33;34.98;100628.41;4997575;28;96817;-56
2021/12/07 13:11:40;;;;;;;4.68;2.17;;;;;;;22.55;34.65;100623.97;4998852;28;97205;-63
2021/12/07 13:14:24;;;;;;;5.10;1.98;;;;;;;22.72;33.52;100608.25;4994863;28;97569;-61
2021/12/07 13:16:53;;;;;;;5.90;1.80;;;;;;;22.82;33.96;100600.25;4992129;28;97025;-58
2021/12/07 13:19:20;;;;;;;9.40;2.15;;;;;;;22.92;33.98;100601.16;4998128;28;96832;-64